createdAt,value
2022-09-20T00:01:07.606Z,12.81
2022-09-20T00:03:39.710Z,12.80
2022-09-20T00:06:09.321Z,12.81
2022-09-20T00:08:36.288Z,12.83
2022-09-20T00:11:12.255Z,12.82
2022-09-20T00:13:39.743Z,12.76
2022-09-20T00:16:10.944Z,12.87
2022-09-20T00:18:38.480Z,12.97
2022-09-20T00:21:05.352Z,12.90
2022-09-20T00:23:32.780Z,12.97
2022-09-20T00:26:04.047Z,12.94
2022-09-20T00:28:32.487Z,12.91
2022-09-20T00:30:58.947Z,12.89
2022-09-20T00:33:46.265Z,12.83
2022-09-20T00:36:13.326Z,12.73
2022-09-20T00:38:39.816Z,12.74
2022-09-20T00:41:06.475Z,12.89
2022-09-20T00:43:44.165Z,12.82
2022-09-20T00:46:33.614Z,12.80
2022-09-20T00:49:07.794Z,12.79
2022-09-20T00:51:38.886Z,12.84
2022-09-20T00:54:08.741Z,12.96
2022-09-20T00:56:40.876Z,12.99
2022-09-20T00:59:16.863Z,12.80
2022-09-20T01:01:46.736Z,12.79
2022-09-20T01:04:16.584Z,12.96
2022-09-20T01:06:45.982Z,12.88
2022-09-20T01:09:12.481Z,12.82
2022-09-20T01:11:40.513Z,12.88
2022-09-20T01:14:07.500Z,12.95
2022-09-20T01:16:34.946Z,12.99
2022-09-20T01:19:15.729Z,13.01
2022-09-20T01:21:42.333Z,13.03
2022-09-20T01:24:20.641Z,12.90
2022-09-20T01:26:56.500Z,12.86
2022-09-20T01:29:22.871Z,13.05
2022-09-20T01:31:54.108Z,13.09
2022-09-20T01:34:37.416Z,12.99
2022-09-20T01:37:06.840Z,12.85
2022-09-20T01:39:33.201Z,12.94
2022-09-20T01:42:05.264Z,12.80
2022-09-20T01:44:59.802Z,12.84
2022-09-20T01:47:38.555Z,12.84
2022-09-20T01:50:15.319Z,12.79
2022-09-20T01:52:56.937Z,12.74
2022-09-20T01:56:04.891Z,12.69
2022-09-20T01:58:40.278Z,12.50
2022-09-20T02:01:48.416Z,12.53
2022-09-20T02:04:37.783Z,12.60
2022-09-20T02:07:13.440Z,12.68
2022-09-20T02:09:58.916Z,12.64
2022-09-20T02:12:40.553Z,12.73
2022-09-20T02:15:28.557Z,12.80
2022-09-20T02:18:01.607Z,12.60
2022-09-20T02:20:31.052Z,12.58
2022-09-20T02:23:13.455Z,12.54
2022-09-20T02:26:01.046Z,12.61
2022-09-20T02:28:33.315Z,12.59
2022-09-20T02:31:07.225Z,12.75
2022-09-20T02:33:52.090Z,12.73
2022-09-20T02:36:40.669Z,12.81
2022-09-20T02:39:16.742Z,12.79
2022-09-20T02:41:46.007Z,12.84
2022-09-20T02:44:24.572Z,12.75
2022-09-20T02:47:09.086Z,12.73
2022-09-20T02:50:00.399Z,12.70
2022-09-20T02:52:48.183Z,12.74
2022-09-20T02:55:25.263Z,12.72
2022-09-20T02:58:00.897Z,12.86
2022-09-20T03:00:51.384Z,12.81
2022-09-20T03:03:44.303Z,12.72
2022-09-20T03:06:43.640Z,12.84
2022-09-20T03:09:31.668Z,12.81
2022-09-20T03:12:17.986Z,12.69
2022-09-20T03:15:13.527Z,12.66
2022-09-20T03:17:50.634Z,12.66
2022-09-20T03:20:25.996Z,12.74
2022-09-20T03:22:55.472Z,12.67
2022-09-20T03:25:47.070Z,12.69
2022-09-20T03:28:32.072Z,12.67
2022-09-20T03:31:17.846Z,12.88
2022-09-20T03:34:02.873Z,12.92
2022-09-20T03:36:56.749Z,12.92
2022-09-20T03:39:38.425Z,12.86
2022-09-20T03:42:16.621Z,12.84
2022-09-20T03:44:49.111Z,12.88
2022-09-20T03:48:01.589Z,12.71
2022-09-20T03:50:36.794Z,12.82
2022-09-20T03:53:15.468Z,12.80
2022-09-20T03:56:00.742Z,12.69
2022-09-20T03:58:33.116Z,12.66
2022-09-20T04:01:38.923Z,12.53
2022-09-20T04:04:22.865Z,12.60
2022-09-20T04:07:08.045Z,12.54
2022-09-20T04:10:03.904Z,12.50
2022-09-20T04:12:39.223Z,12.66
2022-09-20T04:15:23.955Z,12.58
2022-09-20T04:18:19.340Z,12.57
2022-09-20T04:20:50.904Z,12.47
2022-09-20T04:23:44.509Z,12.57
2022-09-20T04:26:11.119Z,12.69
2022-09-20T04:28:47.250Z,12.64
2022-09-20T04:31:43.189Z,12.58
2022-09-20T04:34:51.821Z,12.67
2022-09-20T04:37:39.615Z,12.66
2022-09-20T04:40:47.911Z,12.80
2022-09-20T04:43:20.265Z,12.86
2022-09-20T04:46:16.271Z,12.82
2022-09-20T04:48:45.735Z,12.75
2022-09-20T04:51:33.627Z,12.54
2022-09-20T04:54:42.151Z,12.57
2022-09-20T04:57:36.727Z,12.72
2022-09-20T05:00:10.918Z,12.64
2022-09-20T05:02:37.933Z,12.54
2022-09-20T05:05:32.357Z,12.62
2022-09-20T05:08:11.215Z,12.73
2022-09-20T05:11:04.236Z,12.64
2022-09-20T05:13:49.836Z,12.63
2022-09-20T05:16:29.762Z,12.73
2022-09-20T05:19:13.328Z,12.69
2022-09-20T05:21:52.658Z,12.63
2022-09-20T05:24:31.275Z,12.78
2022-09-20T05:27:33.973Z,12.77
2022-09-20T05:30:06.979Z,12.77
2022-09-20T05:32:56.681Z,12.73
2022-09-20T05:36:16.724Z,12.58
2022-09-20T05:38:43.172Z,12.63
2022-09-20T05:41:23.697Z,12.62
2022-09-20T05:44:02.085Z,12.64
2022-09-20T05:46:37.595Z,12.69
2022-09-20T05:49:20.196Z,12.64
2022-09-20T05:52:20.852Z,12.62
2022-09-20T05:55:25.114Z,12.59
2022-09-20T05:58:23.888Z,12.67
2022-09-20T06:01:02.172Z,12.50
2022-09-20T06:04:01.156Z,12.49
2022-09-20T06:06:56.235Z,12.55
2022-09-20T06:09:53.706Z,12.54
2022-09-20T06:12:52.762Z,12.63
2022-09-20T06:15:29.084Z,12.68
2022-09-20T06:18:23.721Z,12.55
2022-09-20T06:21:11.742Z,12.46
2022-09-20T06:23:38.232Z,12.62
2022-09-20T06:26:20.528Z,12.59
2022-09-20T06:28:54.193Z,12.55
2022-09-20T06:31:24.345Z,12.59
2022-09-20T06:33:50.995Z,12.63
2022-09-20T06:36:45.603Z,12.70
2022-09-20T06:39:38.073Z,12.74
2022-09-20T06:42:04.753Z,12.83
2022-09-20T06:44:31.304Z,12.71
2022-09-20T06:46:58.000Z,12.63
2022-09-20T06:49:28.130Z,12.68
2022-09-20T06:51:55.802Z,12.72
2022-09-20T06:54:23.156Z,12.73
2022-09-20T06:56:51.226Z,12.78
2022-09-20T06:59:17.853Z,12.84
2022-09-20T07:01:44.432Z,12.95
2022-09-20T07:04:11.020Z,13.09
2022-09-20T07:06:37.687Z,13.13
2022-09-20T07:09:05.672Z,13.12
2022-09-20T07:11:34.153Z,13.21
2022-09-20T07:14:01.336Z,13.37
2022-09-20T07:16:27.982Z,13.42
2022-09-20T07:18:54.543Z,13.32
2022-09-20T07:21:21.482Z,13.33
2022-09-20T07:23:51.369Z,13.51
2022-09-20T07:26:19.866Z,13.52
2022-09-20T07:28:47.006Z,13.43
2022-09-20T07:31:13.717Z,13.46
2022-09-20T07:33:40.272Z,13.61
2022-09-20T07:36:07.060Z,13.75
2022-09-20T07:38:33.587Z,13.77
2022-09-20T07:41:02.302Z,13.89
2022-09-20T07:43:30.876Z,13.96
2022-09-20T07:45:59.327Z,14.26
2022-09-20T07:48:31.601Z,14.25
2022-09-20T07:51:08.007Z,14.32
2022-09-20T07:53:35.937Z,14.43
2022-09-20T07:56:04.115Z,14.45
2022-09-20T07:58:34.002Z,14.32
2022-09-20T08:01:09.128Z,14.35
2022-09-20T08:03:36.390Z,14.35
2022-09-20T08:06:06.053Z,14.59
2022-09-20T08:08:37.307Z,14.79
2022-09-20T08:11:05.402Z,14.64
2022-09-20T08:16:22.955Z,14.32
2022-09-20T08:18:51.277Z,14.18
2022-09-20T08:21:18.938Z,14.19
2022-09-20T08:23:50.053Z,14.19
2022-09-20T08:26:19.008Z,14.29
2022-09-20T08:28:46.821Z,14.46
2022-09-20T08:31:16.055Z,14.57
2022-09-20T08:33:43.236Z,14.78
2022-09-20T08:36:15.744Z,14.86
2022-09-20T08:41:37.370Z,15.00
2022-09-20T08:44:15.364Z,15.09
2022-09-20T08:46:47.523Z,15.10
2022-09-20T08:49:26.330Z,15.31
2022-09-20T08:51:54.720Z,15.35
2022-09-20T08:54:24.181Z,15.27
2022-09-20T08:56:51.049Z,15.42
2022-09-20T08:59:20.061Z,15.49
2022-09-20T09:01:48.709Z,15.52
2022-09-20T09:04:23.469Z,15.59
2022-09-20T09:06:52.562Z,15.53
2022-09-20T09:09:25.542Z,15.50
2022-09-20T09:11:53.820Z,15.39
2022-09-20T09:14:43.851Z,15.31
2022-09-20T09:17:12.230Z,15.16
2022-09-20T09:19:44.900Z,15.20
2022-09-20T09:22:17.276Z,15.11
2022-09-20T09:24:43.808Z,15.31
2022-09-20T09:27:19.167Z,15.36
2022-09-20T09:29:54.264Z,15.39
2022-09-20T09:32:24.786Z,15.48
2022-09-20T09:34:51.272Z,15.59
2022-09-20T09:37:31.025Z,15.81
2022-09-20T09:40:06.359Z,15.69
2022-09-20T09:42:33.197Z,15.78
2022-09-20T09:45:20.632Z,15.75
2022-09-20T09:47:47.474Z,15.69
2022-09-20T09:50:23.416Z,15.49
2022-09-20T09:53:25.851Z,15.69
2022-09-20T09:56:17.275Z,15.70
2022-09-20T09:59:31.516Z,15.78
2022-09-20T10:02:16.081Z,15.61
2022-09-20T10:05:11.970Z,15.65
2022-09-20T10:07:45.848Z,15.54
2022-09-20T10:10:39.413Z,15.34
2022-09-20T10:13:19.935Z,15.30
2022-09-20T10:15:52.257Z,15.13
2022-09-20T10:18:51.042Z,15.23
2022-09-20T10:22:02.016Z,15.42
2022-09-20T10:24:44.461Z,15.42
2022-09-20T10:27:41.901Z,15.43
2022-09-20T10:30:16.924Z,15.34
2022-09-20T10:32:59.908Z,15.26
2022-09-20T10:35:37.034Z,15.09
2022-09-20T10:38:13.515Z,14.82
2022-09-20T10:41:03.804Z,14.68
2022-09-20T10:43:55.289Z,14.42
2022-09-20T10:46:43.009Z,14.31
2022-09-20T10:49:34.590Z,14.42
2022-09-20T10:52:01.039Z,14.39
2022-09-20T10:54:49.863Z,14.41
2022-09-20T10:57:58.660Z,14.21
2022-09-20T11:00:32.391Z,14.09
2022-09-20T11:03:10.986Z,14.06
2022-09-20T11:06:24.473Z,14.04
2022-09-20T11:08:55.708Z,14.29
2022-09-20T11:11:40.322Z,14.32
2022-09-20T11:14:19.407Z,14.41
2022-09-20T11:17:00.346Z,14.62
2022-09-20T11:19:31.347Z,14.63
2022-09-20T11:22:13.262Z,14.67
2022-09-20T11:24:46.285Z,14.80
2022-09-20T11:27:19.985Z,14.84
2022-09-20T11:30:15.208Z,14.84
2022-09-20T11:33:04.757Z,14.86
2022-09-20T11:35:48.054Z,15.08
2022-09-20T11:38:21.888Z,15.13
2022-09-20T11:41:01.478Z,15.28
2022-09-20T11:43:30.236Z,15.23
2022-09-20T11:46:04.505Z,15.38
2022-09-20T11:48:51.577Z,15.42
2022-09-20T11:51:40.215Z,15.45
2022-09-20T11:54:13.073Z,15.53
2022-09-20T11:56:42.472Z,15.65
2022-09-20T11:59:28.171Z,15.48
2022-09-20T12:01:59.342Z,15.61
2022-09-20T12:04:33.921Z,15.66
2022-09-20T12:07:32.159Z,15.52
2022-09-20T12:10:04.891Z,15.50
2022-09-20T12:12:31.875Z,15.50
2022-09-20T12:15:01.385Z,15.51
2022-09-20T12:17:46.224Z,15.66
2022-09-20T12:20:44.888Z,15.63
2022-09-20T12:23:42.643Z,15.63
2022-09-20T12:26:32.199Z,15.66
2022-09-20T12:29:20.371Z,15.70
2022-09-20T12:31:52.697Z,15.65
2022-09-20T12:34:19.153Z,15.50
2022-09-20T12:37:10.207Z,15.31
2022-09-20T12:39:38.698Z,15.30
2022-09-20T12:42:11.586Z,15.11
2022-09-20T12:44:47.053Z,15.10
2022-09-20T12:47:13.476Z,15.08
2022-09-20T12:50:04.790Z,15.25
2022-09-20T12:52:58.652Z,15.39
2022-09-20T12:55:43.597Z,15.51
2022-09-20T12:58:16.050Z,15.56
2022-09-20T13:00:50.772Z,15.49
2022-09-20T13:03:22.757Z,15.57
2022-09-20T13:06:12.564Z,15.47
2022-09-20T13:08:39.922Z,15.53
2022-09-20T13:11:06.828Z,15.50
2022-09-20T13:13:47.486Z,15.60
2022-09-20T13:16:22.523Z,15.69
2022-09-20T13:19:01.518Z,15.76
2022-09-20T13:21:28.422Z,15.71
2022-09-20T13:23:55.324Z,15.71
2022-09-20T13:26:27.459Z,15.79
2022-09-20T13:28:55.671Z,15.77
2022-09-20T13:31:24.095Z,15.75
2022-09-20T13:33:50.849Z,15.77
2022-09-20T13:36:27.124Z,15.88
2022-09-20T13:38:56.737Z,16.05
2022-09-20T13:41:24.400Z,16.12
2022-09-20T13:43:51.207Z,16.15
2022-09-20T13:46:22.239Z,16.20
2022-09-20T13:48:53.883Z,16.24
2022-09-20T13:51:25.419Z,16.31
2022-09-20T13:53:52.425Z,16.28
2022-09-20T13:56:18.830Z,16.18
2022-09-20T13:58:45.620Z,16.13
2022-09-20T14:01:27.194Z,16.13
2022-09-20T14:03:54.763Z,16.33
2022-09-20T14:06:29.629Z,16.45
2022-09-20T14:08:58.963Z,16.51
2022-09-20T14:11:33.657Z,16.59
2022-09-20T14:14:02.768Z,16.58
2022-09-20T14:16:37.956Z,16.50
2022-09-20T14:19:05.697Z,16.44
2022-09-20T14:21:33.480Z,16.51
2022-09-20T14:24:05.597Z,16.67
2022-09-20T14:26:36.197Z,16.70
2022-09-20T14:29:47.650Z,16.53
2022-09-20T14:32:16.929Z,16.65
2022-09-20T14:34:46.490Z,16.65
2022-09-20T14:37:23.960Z,16.65
2022-09-20T14:39:54.903Z,16.45
2022-09-20T14:42:35.736Z,16.52
2022-09-20T14:45:05.139Z,16.46
2022-09-20T14:47:52.489Z,16.53
2022-09-20T14:50:34.503Z,16.54
2022-09-20T14:53:03.607Z,16.55
2022-09-20T14:55:37.146Z,16.48
2022-09-20T14:58:11.891Z,16.52
2022-09-20T15:01:01.503Z,16.48
2022-09-20T15:03:34.178Z,16.51
2022-09-20T15:06:00.824Z,16.53
2022-09-20T15:08:27.784Z,16.57
2022-09-20T15:10:54.740Z,16.49
2022-09-20T15:13:21.658Z,16.41
2022-09-20T15:15:53.602Z,16.38
2022-09-20T15:18:25.220Z,16.37
2022-09-20T15:20:52.939Z,16.28
2022-09-20T15:23:20.134Z,16.27
2022-09-20T15:25:50.487Z,16.18
2022-09-20T15:28:17.744Z,16.28
2022-09-20T15:30:49.212Z,16.25
2022-09-20T15:33:16.437Z,16.27
2022-09-20T15:35:44.161Z,16.34
2022-09-20T15:38:11.852Z,16.40
2022-09-20T15:40:40.598Z,16.41
2022-09-20T15:43:09.429Z,16.33
2022-09-20T15:45:36.239Z,16.53
2022-09-20T15:48:03.034Z,16.68
2022-09-20T15:50:29.559Z,16.67
2022-09-20T15:52:59.994Z,16.58
2022-09-20T15:55:26.841Z,16.49
2022-09-20T15:57:53.384Z,16.58
2022-09-20T16:00:20.058Z,16.56
2022-09-20T16:02:49.956Z,16.48
2022-09-20T16:05:16.439Z,16.52
2022-09-20T16:07:42.922Z,16.63
2022-09-20T16:10:09.571Z,16.60
2022-09-20T16:12:36.060Z,16.52
2022-09-20T16:15:02.602Z,16.56
2022-09-20T16:17:47.660Z,16.56
2022-09-20T16:20:14.180Z,16.49
2022-09-20T16:22:40.689Z,16.58
2022-09-20T16:25:08.601Z,16.67
2022-09-20T16:27:35.140Z,16.49
2022-09-20T16:30:02.492Z,16.48
2022-09-20T16:32:29.029Z,16.49
2022-09-20T16:34:55.500Z,16.54
2022-09-20T16:37:23.631Z,16.52
2022-09-20T16:39:50.121Z,16.39
2022-09-20T16:42:16.927Z,16.44
2022-09-20T16:44:43.395Z,16.46
2022-09-20T16:47:22.114Z,16.43
2022-09-20T16:49:50.187Z,16.44
2022-09-20T16:52:16.696Z,16.47
2022-09-20T16:54:43.151Z,16.44
2022-09-20T16:57:09.681Z,16.33
2022-09-20T16:59:36.142Z,16.27
2022-09-20T17:02:02.717Z,16.25
2022-09-20T17:04:30.018Z,16.25
2022-09-20T17:06:56.740Z,16.16
2022-09-20T17:09:23.502Z,16.20
2022-09-20T17:11:51.208Z,16.10
2022-09-20T17:14:20.258Z,16.05
2022-09-20T17:16:48.003Z,16.11
2022-09-20T17:19:19.576Z,16.15
2022-09-20T17:21:49.800Z,16.07
2022-09-20T17:24:23.343Z,15.93
2022-09-20T17:26:51.023Z,15.89
2022-09-20T17:29:19.145Z,15.75
2022-09-20T17:31:54.103Z,15.78
2022-09-20T17:34:22.538Z,15.75
2022-09-20T17:36:50.366Z,15.84
2022-09-20T17:39:17.529Z,15.77
2022-09-20T17:41:46.952Z,15.75
2022-09-20T17:44:14.034Z,15.84
2022-09-20T17:46:45.536Z,15.82
2022-09-20T17:49:14.712Z,15.69
2022-09-20T17:51:43.846Z,15.72
2022-09-20T17:54:14.510Z,15.69
2022-09-20T17:56:47.048Z,15.77
2022-09-20T17:59:17.890Z,15.83
2022-09-20T18:01:47.191Z,15.89
2022-09-20T18:04:13.971Z,15.87
2022-09-20T18:06:44.424Z,15.73
2022-09-20T18:09:24.678Z,15.75
2022-09-20T18:11:53.005Z,15.76
2022-09-20T18:14:25.670Z,15.76
2022-09-20T18:16:53.415Z,15.68
2022-09-20T18:19:21.394Z,15.73
2022-09-20T18:21:48.257Z,15.62
2022-09-20T18:24:14.982Z,15.58
2022-09-20T18:26:41.946Z,15.62
2022-09-20T18:29:14.141Z,15.60
2022-09-20T18:31:55.553Z,15.60
2022-09-20T18:34:24.327Z,15.65
2022-09-20T18:36:55.707Z,15.66
2022-09-20T18:39:23.110Z,15.63
2022-09-20T18:41:50.586Z,15.61
2022-09-20T18:44:18.497Z,15.62
2022-09-20T18:46:46.453Z,15.64
2022-09-20T18:49:15.029Z,15.61
2022-09-20T18:51:42.449Z,15.64
2022-09-20T18:54:10.526Z,15.67
2022-09-20T18:56:44.659Z,15.64
2022-09-20T18:59:20.480Z,15.65
2022-09-20T19:02:05.580Z,15.64
2022-09-20T19:05:00.204Z,15.61
2022-09-20T19:07:45.349Z,15.59
2022-09-20T19:10:20.489Z,15.64
2022-09-20T19:13:25.285Z,15.59
2022-09-20T19:16:17.074Z,15.56
2022-09-20T19:19:18.024Z,15.55
2022-09-20T19:22:18.484Z,15.51
2022-09-20T19:25:12.697Z,15.37
2022-09-20T19:27:39.576Z,15.37
2022-09-20T19:30:07.154Z,15.31
2022-09-20T19:32:34.504Z,15.26
2022-09-20T19:35:01.662Z,15.24
2022-09-20T19:37:56.868Z,15.20
2022-09-20T19:40:46.377Z,15.13
2022-09-20T19:43:19.510Z,15.09
2022-09-20T19:46:14.690Z,15.04
2022-09-20T19:48:54.312Z,15.05
2022-09-20T19:51:22.312Z,15.03
2022-09-20T19:53:49.772Z,15.04
2022-09-20T19:56:28.036Z,14.96
2022-09-20T19:58:56.199Z,14.91
2022-09-20T20:01:24.523Z,14.85
2022-09-20T20:03:55.060Z,14.83
2022-09-20T20:06:27.743Z,14.77
2022-09-20T20:09:03.234Z,14.74
2022-09-20T20:12:08.323Z,14.74
2022-09-20T20:14:44.575Z,14.72
2022-09-20T20:17:24.815Z,14.67
2022-09-20T20:20:06.044Z,14.55
2022-09-20T20:22:47.726Z,14.45
2022-09-20T20:25:46.223Z,14.38
2022-09-20T20:28:13.688Z,14.26
2022-09-20T20:30:40.155Z,14.15
2022-09-20T20:33:07.264Z,14.18
2022-09-20T20:35:34.092Z,14.15
2022-09-20T20:38:00.627Z,14.07
2022-09-20T20:40:28.124Z,13.99
2022-09-20T20:43:02.519Z,14.11
2022-09-20T20:45:32.221Z,14.21
2022-09-20T20:47:59.225Z,14.29
2022-09-20T20:50:27.051Z,14.37
2022-09-20T20:52:57.263Z,14.43
2022-09-20T20:55:24.802Z,14.47
2022-09-20T20:57:58.080Z,14.49
2022-09-20T21:00:27.950Z,14.48
2022-09-20T21:03:01.509Z,14.48
2022-09-20T21:05:29.060Z,14.46
2022-09-20T21:07:56.286Z,14.45
2022-09-20T21:10:23.691Z,14.45
2022-09-20T21:12:53.703Z,14.41
2022-09-20T21:15:21.314Z,14.42
2022-09-20T21:17:52.398Z,14.43
2022-09-20T21:20:19.324Z,14.40
2022-09-20T21:22:45.942Z,14.36
2022-09-20T21:25:12.700Z,14.28
2022-09-20T21:27:39.447Z,14.23
2022-09-20T21:30:06.541Z,14.20
2022-09-20T21:32:32.971Z,14.20
2022-09-20T21:34:59.407Z,14.12
2022-09-20T21:37:25.847Z,14.06
2022-09-20T21:39:54.365Z,14.03
2022-09-20T21:42:20.844Z,14.05
2022-09-20T21:44:47.404Z,14.07
2022-09-20T21:47:20.000Z,14.10
2022-09-20T21:49:47.545Z,14.07
2022-09-20T21:52:14.437Z,14.11
2022-09-20T21:54:40.931Z,14.11
2022-09-20T21:57:07.460Z,14.02
2022-09-20T21:59:33.956Z,13.97
2022-09-20T22:02:00.380Z,14.02
2022-09-20T22:04:29.104Z,13.98
2022-09-20T22:06:55.704Z,13.91
2022-09-20T22:09:24.019Z,13.85
2022-09-20T22:11:50.608Z,13.83
2022-09-20T22:14:19.375Z,13.81
2022-09-20T22:16:47.862Z,13.78
2022-09-20T22:19:16.969Z,13.72
2022-09-20T22:21:48.101Z,13.62
2022-09-20T22:24:15.973Z,13.51
2022-09-20T22:26:45.002Z,13.49
2022-09-20T22:29:11.726Z,13.48
2022-09-20T22:31:44.872Z,13.48
2022-09-20T22:34:15.467Z,13.51
2022-09-20T22:36:42.153Z,13.50
2022-09-20T22:39:10.111Z,13.52
2022-09-20T22:41:38.025Z,13.54
2022-09-20T22:44:05.738Z,13.55
2022-09-20T22:46:33.612Z,13.57
2022-09-20T22:49:00.384Z,13.56
2022-09-20T22:51:30.723Z,13.56
2022-09-20T22:53:57.187Z,13.56
2022-09-20T22:56:29.291Z,13.57
2022-09-20T22:59:00.914Z,13.51
2022-09-20T23:01:30.141Z,13.40
2022-09-20T23:04:00.860Z,13.31
2022-09-20T23:06:32.234Z,13.20
2022-09-20T23:09:04.497Z,13.22
2022-09-20T23:11:31.375Z,13.23
2022-09-20T23:14:00.064Z,13.29
2022-09-20T23:16:28.939Z,13.26
2022-09-20T23:18:56.915Z,13.17
2022-09-20T23:21:23.876Z,13.11
2022-09-20T23:23:55.557Z,13.00
2022-09-20T23:26:22.329Z,12.94
2022-09-20T23:28:57.631Z,12.85
2022-09-20T23:31:24.955Z,12.79
2022-09-20T23:33:59.696Z,12.76
2022-09-20T23:36:28.962Z,12.71
2022-09-20T23:38:59.740Z,12.73
2022-09-20T23:41:27.698Z,12.77
2022-09-20T23:43:54.707Z,12.86
2022-09-20T23:46:25.421Z,12.91
2022-09-20T23:48:52.224Z,12.93
2022-09-20T23:51:21.653Z,12.84
2022-09-20T23:53:48.583Z,12.77
2022-09-20T23:56:15.371Z,12.77
2022-09-20T23:58:43.900Z,12.81
